sensor_id;sensor_type;location;lat;lon;timestamp;temperature;humidity
14411;DHT22;7290;50.854;4.354;2023-04-01T00:00:23;10.80;99.90
14411;DHT22;7290;50.854;4.354;2023-04-01T00:02:49;10.80;99.90
14411;DHT22;7290;50.854;4.354;2023-04-01T00:05:15;10.70;99.90
14411;DHT22;7290;50.854;4.354;2023-04-01T00:07:42;10.70;99.90
14411;DHT22;7290;50.854;4.354;2023-04-01T00:10:11;10.60;99.90
14411;DHT22;7290;50.854;4.354;2023-04-01T00:12:39;10.70;99.90
14411;DHT22;7290;50.854;4.354;2023-04-01T00:15:07;10.80;99.90
14411;DHT22;7290;50.854;4.354;2023-04-01T00:17:34;10.80;99.90
14411;DHT22;7290;50.854;4.354;2023-04-01T00:20:01;10.70;99.90
14411;DHT22;7290;50.854;4.354;2023-04-01T00:22:28;10.80;99.90
14411;DHT22;7290;50.854;4.354;2023-04-01T00:24:54;10.80;99.90
14411;DHT22;7290;50.854;4.354;2023-04-01T00:27:20;10.70;99.90
14411;DHT22;7290;50.854;4.354;2023-04-01T00:29:47;10.70;99.90
14411;DHT22;7290;50.854;4.354;2023-04-01T00:32:14;10.70;99.90
14411;DHT22;7290;50.854;4.354;2023-04-01T00:34:40;10.70;99.90
14411;DHT22;7290;50.854;4.354;2023-04-01T00:37:06;10.70;99.90
14411;DHT22;7290;50.854;4.354;2023-04-01T00:39:34;10.70;99.90
14411;DHT22;7290;50.854;4.354;2023-04-01T00:42:00;10.70;99.90
14411;DHT22;7290;50.854;4.354;2023-04-01T00:44:29;10.60;99.90
14411;DHT22;7290;50.854;4.354;2023-04-01T00:46:56;10.70;99.90
14411;DHT22;7290;50.854;4.354;2023-04-01T00:49:26;10.70;99.90
14411;DHT22;7290;50.854;4.354;2023-04-01T00:51:57;10.60;99.90
14411;DHT22;7290;50.854;4.354;2023-04-01T00:54:25;10.60;99.90
14411;DHT22;7290;50.854;4.354;2023-04-01T00:56:55;10.70;99.90
14411;DHT22;7290;50.854;4.354;2023-04-01T00:59:25;10.70;99.90
14411;DHT22;7290;50.854;4.354;2023-04-01T01:01:51;10.70;99.90
14411;DHT22;7290;50.854;4.354;2023-04-01T01:04:23;10.80;99.90
14411;DHT22;7290;50.854;4.354;2023-04-01T01:06:54;10.80;99.90
14411;DHT22;7290;50.854;4.354;2023-04-01T01:09:39;10.90;99.90
14411;DHT22;7290;50.854;4.354;2023-04-01T01:12:11;10.80;99.90
14411;DHT22;7290;50.854;4.354;2023-04-01T01:14:54;10.80;99.90
14411;DHT22;7290;50.854;4.354;2023-04-01T01:17:30;10.80;99.90
14411;DHT22;7290;50.854;4.354;2023-04-01T01:20:19;10.80;99.90
14411;DHT22;7290;50.854;4.354;2023-04-01T01:22:57;10.90;99.90
14411;DHT22;7290;50.854;4.354;2023-04-01T01:25:41;10.80;99.90
14411;DHT22;7290;50.854;4.354;2023-04-01T01:28:24;10.80;99.90
14411;DHT22;7290;50.854;4.354;2023-04-01T01:30:59;10.80;99.90
14411;DHT22;7290;50.854;4.354;2023-04-01T01:33:57;10.70;99.90
14411;DHT22;7290;50.854;4.354;2023-04-01T01:36:31;10.80;99.90
14411;DHT22;7290;50.854;4.354;2023-04-01T01:39:00;10.90;99.90
14411;DHT22;7290;50.854;4.354;2023-04-01T01:41:27;10.90;99.90
14411;DHT22;7290;50.854;4.354;2023-04-01T01:43:56;11.00;99.90
14411;DHT22;7290;50.854;4.354;2023-04-01T01:46:24;11.00;99.90
14411;DHT22;7290;50.854;4.354;2023-04-01T01:48:51;11.00;99.90
14411;DHT22;7290;50.854;4.354;2023-04-01T01:51:18;11.00;99.90
14411;DHT22;7290;50.854;4.354;2023-04-01T01:53:45;11.10;99.90
14411;DHT22;7290;50.854;4.354;2023-04-01T01:56:11;11.10;99.90
14411;DHT22;7290;50.854;4.354;2023-04-01T01:58:42;11.00;99.90
14411;DHT22;7290;50.854;4.354;2023-04-01T02:01:11;11.10;99.90
14411;DHT22;7290;50.854;4.354;2023-04-01T02:03:39;11.00;99.90
14411;DHT22;7290;50.854;4.354;2023-04-01T02:06:09;10.90;99.90
14411;DHT22;7290;50.854;4.354;2023-04-01T02:08:39;10.90;99.90
14411;DHT22;7290;50.854;4.354;2023-04-01T02:11:08;10.90;99.90
14411;DHT22;7290;50.854;4.354;2023-04-01T02:13:39;10.90;99.90
14411;DHT22;7290;50.854;4.354;2023-04-01T02:16:09;10.90;99.90
14411;DHT22;7290;50.854;4.354;2023-04-01T02:18:38;10.90;99.90
14411;DHT22;7290;50.854;4.354;2023-04-01T02:21:05;10.90;99.90
14411;DHT22;7290;50.854;4.354;2023-04-01T02:23:34;10.90;99.90
14411;DHT22;7290;50.854;4.354;2023-04-01T02:26:01;11.00;99.90
14411;DHT22;7290;50.854;4.354;2023-04-01T02:28:29;10.90;99.90
14411;DHT22;7290;50.854;4.354;2023-04-01T02:30:58;10.80;99.90
14411;DHT22;7290;50.854;4.354;2023-04-01T02:33:28;10.70;99.90
14411;DHT22;7290;50.854;4.354;2023-04-01T02:35:54;10.60;99.90
14411;DHT22;7290;50.854;4.354;2023-04-01T02:38:21;10.60;99.90
14411;DHT22;7290;50.854;4.354;2023-04-01T02:40:49;10.50;99.90
14411;DHT22;7290;50.854;4.354;2023-04-01T02:43:16;10.50;99.90
14411;DHT22;7290;50.854;4.354;2023-04-01T02:45:43;10.60;99.90
14411;DHT22;7290;50.854;4.354;2023-04-01T02:48:09;10.60;99.90
14411;DHT22;7290;50.854;4.354;2023-04-01T02:50:35;10.60;99.90
14411;DHT22;7290;50.854;4.354;2023-04-01T02:53:01;10.60;99.90
14411;DHT22;7290;50.854;4.354;2023-04-01T02:55:29;10.70;99.90
14411;DHT22;7290;50.854;4.354;2023-04-01T02:57:55;10.60;99.90
14411;DHT22;7290;50.854;4.354;2023-04-01T03:00:21;10.60;99.90
14411;DHT22;7290;50.854;4.354;2023-04-01T03:02:48;10.70;99.90
14411;DHT22;7290;50.854;4.354;2023-04-01T03:05:14;10.70;99.90
14411;DHT22;7290;50.854;4.354;2023-04-01T03:07:40;10.70;99.90
14411;DHT22;7290;50.854;4.354;2023-04-01T03:10:07;10.50;99.90
14411;DHT22;7290;50.854;4.354;2023-04-01T03:12:34;10.50;99.90
14411;DHT22;7290;50.854;4.354;2023-04-01T03:15:00;10.60;99.90
14411;DHT22;7290;50.854;4.354;2023-04-01T03:17:26;10.60;99.90
14411;DHT22;7290;50.854;4.354;2023-04-01T03:19:53;10.60;99.90
14411;DHT22;7290;50.854;4.354;2023-04-01T03:22:19;10.70;99.90
14411;DHT22;7290;50.854;4.354;2023-04-01T03:24:46;10.60;99.90
14411;DHT22;7290;50.854;4.354;2023-04-01T03:27:13;10.60;99.90
14411;DHT22;7290;50.854;4.354;2023-04-01T03:29:39;10.50;99.90
14411;DHT22;7290;50.854;4.354;2023-04-01T03:32:05;10.60;99.90
14411;DHT22;7290;50.854;4.354;2023-04-01T03:34:31;10.40;99.90
14411;DHT22;7290;50.854;4.354;2023-04-01T03:36:58;10.40;99.90
14411;DHT22;7290;50.854;4.354;2023-04-01T03:39:24;10.40;99.90
14411;DHT22;7290;50.854;4.354;2023-04-01T03:41:50;10.50;99.90
14411;DHT22;7290;50.854;4.354;2023-04-01T03:44:17;10.60;99.90
14411;DHT22;7290;50.854;4.354;2023-04-01T03:46:43;10.60;99.90
14411;DHT22;7290;50.854;4.354;2023-04-01T03:49:10;10.50;99.90
14411;DHT22;7290;50.854;4.354;2023-04-01T03:51:37;10.50;99.90
14411;DHT22;7290;50.854;4.354;2023-04-01T03:54:04;10.50;99.90
14411;DHT22;7290;50.854;4.354;2023-04-01T03:56:30;10.50;99.90
14411;DHT22;7290;50.854;4.354;2023-04-01T03:58:56;10.60;99.90
14411;DHT22;7290;50.854;4.354;2023-04-01T04:01:23;10.70;99.90
14411;DHT22;7290;50.854;4.354;2023-04-01T04:03:49;10.70;99.90
14411;DHT22;7290;50.854;4.354;2023-04-01T04:06:16;10.80;99.90
14411;DHT22;7290;50.854;4.354;2023-04-01T04:08:43;10.80;99.90
14411;DHT22;7290;50.854;4.354;2023-04-01T04:11:10;10.70;99.90
14411;DHT22;7290;50.854;4.354;2023-04-01T04:13:36;10.70;99.90
14411;DHT22;7290;50.854;4.354;2023-04-01T04:16:03;10.70;99.90
14411;DHT22;7290;50.854;4.354;2023-04-01T04:18:29;10.70;99.90
14411;DHT22;7290;50.854;4.354;2023-04-01T04:20:55;10.60;99.90
14411;DHT22;7290;50.854;4.354;2023-04-01T04:23:21;10.60;99.90
14411;DHT22;7290;50.854;4.354;2023-04-01T04:25:55;10.50;99.90
14411;DHT22;7290;50.854;4.354;2023-04-01T04:28:22;10.60;99.90
14411;DHT22;7290;50.854;4.354;2023-04-01T04:30:48;10.40;99.90
14411;DHT22;7290;50.854;4.354;2023-04-01T04:33:14;10.40;99.90
14411;DHT22;7290;50.854;4.354;2023-04-01T04:35:40;10.40;99.90
14411;DHT22;7290;50.854;4.354;2023-04-01T04:38:06;10.50;99.90
14411;DHT22;7290;50.854;4.354;2023-04-01T04:40:33;10.50;99.90
14411;DHT22;7290;50.854;4.354;2023-04-01T04:42:59;10.40;99.90
14411;DHT22;7290;50.854;4.354;2023-04-01T04:45:25;10.40;99.90
14411;DHT22;7290;50.854;4.354;2023-04-01T04:47:51;10.40;99.90
14411;DHT22;7290;50.854;4.354;2023-04-01T04:50:17;10.40;99.90
14411;DHT22;7290;50.854;4.354;2023-04-01T04:52:44;10.40;99.90
14411;DHT22;7290;50.854;4.354;2023-04-01T04:55:10;10.40;99.90
14411;DHT22;7290;50.854;4.354;2023-04-01T04:57:36;10.40;99.90
14411;DHT22;7290;50.854;4.354;2023-04-01T05:00:02;10.30;99.90
14411;DHT22;7290;50.854;4.354;2023-04-01T05:02:29;10.40;99.90
14411;DHT22;7290;50.854;4.354;2023-04-01T05:04:55;10.40;99.90
14411;DHT22;7290;50.854;4.354;2023-04-01T05:07:21;10.40;99.90
14411;DHT22;7290;50.854;4.354;2023-04-01T05:09:47;10.50;99.90
14411;DHT22;7290;50.854;4.354;2023-04-01T05:12:13;10.50;99.90
14411;DHT22;7290;50.854;4.354;2023-04-01T05:14:39;10.50;99.90
14411;DHT22;7290;50.854;4.354;2023-04-01T05:17:08;10.50;99.90
14411;DHT22;7290;50.854;4.354;2023-04-01T05:19:35;10.50;99.90
14411;DHT22;7290;50.854;4.354;2023-04-01T05:22:01;10.50;99.90
14411;DHT22;7290;50.854;4.354;2023-04-01T05:24:27;10.30;99.90
14411;DHT22;7290;50.854;4.354;2023-04-01T05:26:53;10.30;99.90
14411;DHT22;7290;50.854;4.354;2023-04-01T05:29:19;10.30;99.90
14411;DHT22;7290;50.854;4.354;2023-04-01T05:31:45;10.40;99.90
14411;DHT22;7290;50.854;4.354;2023-04-01T05:34:11;10.40;99.90
14411;DHT22;7290;50.854;4.354;2023-04-01T05:36:38;10.40;99.90
14411;DHT22;7290;50.854;4.354;2023-04-01T05:39:04;10.40;99.90
14411;DHT22;7290;50.854;4.354;2023-04-01T05:41:30;10.50;99.90
14411;DHT22;7290;50.854;4.354;2023-04-01T05:43:56;10.50;99.90
14411;DHT22;7290;50.854;4.354;2023-04-01T05:46:22;10.50;99.90
14411;DHT22;7290;50.854;4.354;2023-04-01T05:48:48;10.50;99.90
14411;DHT22;7290;50.854;4.354;2023-04-01T05:51:14;10.60;99.90
14411;DHT22;7290;50.854;4.354;2023-04-01T05:53:41;10.50;99.90
14411;DHT22;7290;50.854;4.354;2023-04-01T05:56:07;10.40;99.90
14411;DHT22;7290;50.854;4.354;2023-04-01T05:58:34;10.50;99.90
14411;DHT22;7290;50.854;4.354;2023-04-01T06:01:02;10.50;99.90
14411;DHT22;7290;50.854;4.354;2023-04-01T06:03:28;10.60;99.90
14411;DHT22;7290;50.854;4.354;2023-04-01T06:05:54;10.60;99.90
14411;DHT22;7290;50.854;4.354;2023-04-01T06:08:20;10.50;99.90
14411;DHT22;7290;50.854;4.354;2023-04-01T06:10:58;10.60;99.90
14411;DHT22;7290;50.854;4.354;2023-04-01T06:13:41;10.60;99.90
14411;DHT22;7290;50.854;4.354;2023-04-01T06:16:17;10.60;99.90
14411;DHT22;7290;50.854;4.354;2023-04-01T06:18:56;10.70;99.90
14411;DHT22;7290;50.854;4.354;2023-04-01T06:21:42;10.60;99.90
14411;DHT22;7290;50.854;4.354;2023-04-01T06:24:30;10.50;99.90
14411;DHT22;7290;50.854;4.354;2023-04-01T06:27:07;10.40;99.90
14411;DHT22;7290;50.854;4.354;2023-04-01T06:29:49;10.30;99.90
14411;DHT22;7290;50.854;4.354;2023-04-01T06:38:36;10.40;99.90
14411;DHT22;7290;50.854;4.354;2023-04-01T06:41:25;10.40;99.90
14411;DHT22;7290;50.854;4.354;2023-04-01T06:43:59;10.50;99.90
14411;DHT22;7290;50.854;4.354;2023-04-01T06:46:39;10.50;99.90
14411;DHT22;7290;50.854;4.354;2023-04-01T06:49:22;10.40;99.90
14411;DHT22;7290;50.854;4.354;2023-04-01T06:51:58;10.40;99.90
14411;DHT22;7290;50.854;4.354;2023-04-01T06:54:29;10.50;99.90
14411;DHT22;7290;50.854;4.354;2023-04-01T06:57:00;10.60;99.90
14411;DHT22;7290;50.854;4.354;2023-04-01T06:59:33;10.70;99.90
14411;DHT22;7290;50.854;4.354;2023-04-01T07:02:04;10.70;99.90
14411;DHT22;7290;50.854;4.354;2023-04-01T07:04:39;10.60;99.90
14411;DHT22;7290;50.854;4.354;2023-04-01T07:07:12;10.50;99.90
14411;DHT22;7290;50.854;4.354;2023-04-01T07:09:43;10.50;99.90
14411;DHT22;7290;50.854;4.354;2023-04-01T07:12:16;10.60;99.90
14411;DHT22;7290;50.854;4.354;2023-04-01T07:14:48;10.70;99.90
14411;DHT22;7290;50.854;4.354;2023-04-01T07:17:16;10.70;99.90
14411;DHT22;7290;50.854;4.354;2023-04-01T07:19:47;10.70;99.90
14411;DHT22;7290;50.854;4.354;2023-04-01T07:22:26;10.70;99.90
14411;DHT22;7290;50.854;4.354;2023-04-01T07:24:54;10.60;99.90
14411;DHT22;7290;50.854;4.354;2023-04-01T07:27:23;10.70;99.90
14411;DHT22;7290;50.854;4.354;2023-04-01T07:29:51;10.60;99.90
14411;DHT22;7290;50.854;4.354;2023-04-01T07:32:32;10.60;99.90
14411;DHT22;7290;50.854;4.354;2023-04-01T07:35:09;10.70;99.90
14411;DHT22;7290;50.854;4.354;2023-04-01T07:37:45;10.70;99.90
14411;DHT22;7290;50.854;4.354;2023-04-01T07:40:21;10.60;99.90
14411;DHT22;7290;50.854;4.354;2023-04-01T07:43:02;10.60;99.90
14411;DHT22;7290;50.854;4.354;2023-04-01T07:45:34;10.50;99.90
14411;DHT22;7290;50.854;4.354;2023-04-01T07:48:13;10.50;99.90
14411;DHT22;7290;50.854;4.354;2023-04-01T07:50:46;10.70;99.90
14411;DHT22;7290;50.854;4.354;2023-04-01T07:53:22;10.80;99.90
14411;DHT22;7290;50.854;4.354;2023-04-01T07:55:58;10.80;99.90
14411;DHT22;7290;50.854;4.354;2023-04-01T07:58:30;10.80;99.90
14411;DHT22;7290;50.854;4.354;2023-04-01T08:01:05;10.90;99.90
14411;DHT22;7290;50.854;4.354;2023-04-01T08:03:38;10.90;99.90
14411;DHT22;7290;50.854;4.354;2023-04-01T08:06:14;10.80;99.90
14411;DHT22;7290;50.854;4.354;2023-04-01T08:08:50;10.90;99.90
14411;DHT22;7290;50.854;4.354;2023-04-01T08:11:28;10.80;99.90
14411;DHT22;7290;50.854;4.354;2023-04-01T08:14:03;10.70;99.90
14411;DHT22;7290;50.854;4.354;2023-04-01T08:16:37;10.80;99.90
14411;DHT22;7290;50.854;4.354;2023-04-01T08:19:14;11.00;99.90
14411;DHT22;7290;50.854;4.354;2023-04-01T08:21:43;11.00;99.90
14411;DHT22;7290;50.854;4.354;2023-04-01T08:24:16;10.90;99.90
14411;DHT22;7290;50.854;4.354;2023-04-01T08:26:46;10.90;99.90
14411;DHT22;7290;50.854;4.354;2023-04-01T08:29:17;10.90;99.90
14411;DHT22;7290;50.854;4.354;2023-04-01T08:31:51;11.00;99.90
14411;DHT22;7290;50.854;4.354;2023-04-01T08:34:21;11.10;99.90
14411;DHT22;7290;50.854;4.354;2023-04-01T08:36:51;11.30;99.90
14411;DHT22;7290;50.854;4.354;2023-04-01T08:39:24;11.20;99.90
14411;DHT22;7290;50.854;4.354;2023-04-01T08:42:27;11.20;99.90
14411;DHT22;7290;50.854;4.354;2023-04-01T08:45:31;11.20;99.90
14411;DHT22;7290;50.854;4.354;2023-04-01T08:48:34;11.10;99.90
14411;DHT22;7290;50.854;4.354;2023-04-01T08:51:26;11.20;99.90
14411;DHT22;7290;50.854;4.354;2023-04-01T08:54:12;11.30;99.90
14411;DHT22;7290;50.854;4.354;2023-04-01T08:56:48;11.40;99.90
14411;DHT22;7290;50.854;4.354;2023-04-01T09:02:26;11.30;99.90
14411;DHT22;7290;50.854;4.354;2023-04-01T09:05:24;11.10;99.90
14411;DHT22;7290;50.854;4.354;2023-04-01T09:08:03;11.00;99.90
14411;DHT22;7290;50.854;4.354;2023-04-01T09:13:48;11.00;99.90
14411;DHT22;7290;50.854;4.354;2023-04-01T09:16:44;11.00;99.90
14411;DHT22;7290;50.854;4.354;2023-04-01T09:19:28;11.10;99.90
14411;DHT22;7290;50.854;4.354;2023-04-01T09:22:17;11.10;99.90
14411;DHT22;7290;50.854;4.354;2023-04-01T09:27:44;11.30;99.90
14411;DHT22;7290;50.854;4.354;2023-04-01T09:30:33;11.40;99.90
14411;DHT22;7290;50.854;4.354;2023-04-01T09:36:07;11.50;99.90
14411;DHT22;7290;50.854;4.354;2023-04-01T09:38:46;11.50;99.90
14411;DHT22;7290;50.854;4.354;2023-04-01T09:41:22;11.50;99.90
14411;DHT22;7290;50.854;4.354;2023-04-01T09:44:11;11.60;99.90
14411;DHT22;7290;50.854;4.354;2023-04-01T09:46:56;11.60;99.90
14411;DHT22;7290;50.854;4.354;2023-04-01T09:49:48;11.80;99.90
14411;DHT22;7290;50.854;4.354;2023-04-01T09:52:24;12.10;99.90
14411;DHT22;7290;50.854;4.354;2023-04-01T09:55:04;12.00;99.90
14411;DHT22;7290;50.854;4.354;2023-04-01T09:58:12;12.00;99.90
14411;DHT22;7290;50.854;4.354;2023-04-01T10:01:16;11.90;99.90
14411;DHT22;7290;50.854;4.354;2023-04-01T10:04:11;11.90;99.90
14411;DHT22;7290;50.854;4.354;2023-04-01T10:06:58;11.90;99.90
14411;DHT22;7290;50.854;4.354;2023-04-01T10:10:02;11.90;99.90
14411;DHT22;7290;50.854;4.354;2023-04-01T10:12:55;11.80;99.90
14411;DHT22;7290;50.854;4.354;2023-04-01T10:22:05;11.60;99.90
14411;DHT22;7290;50.854;4.354;2023-04-01T10:25:11;11.60;99.90
14411;DHT22;7290;50.854;4.354;2023-04-01T10:28:04;11.90;99.90
14411;DHT22;7290;50.854;4.354;2023-04-01T10:36:46;12.20;99.90
14411;DHT22;7290;50.854;4.354;2023-04-01T10:42:53;12.20;99.90
14411;DHT22;7290;50.854;4.354;2023-04-01T10:45:49;12.20;99.90
14411;DHT22;7290;50.854;4.354;2023-04-01T10:48:45;12.10;99.90
14411;DHT22;7290;50.854;4.354;2023-04-01T10:51:26;12.30;99.90
14411;DHT22;7290;50.854;4.354;2023-04-01T10:54:20;12.30;99.90
14411;DHT22;7290;50.854;4.354;2023-04-01T10:56:55;12.40;99.90
14411;DHT22;7290;50.854;4.354;2023-04-01T11:02:57;12.20;99.90
14411;DHT22;7290;50.854;4.354;2023-04-01T11:09:25;12.50;99.90
14411;DHT22;7290;50.854;4.354;2023-04-01T11:12:19;12.80;99.90
14411;DHT22;7290;50.854;4.354;2023-04-01T11:18:17;12.90;99.90
14411;DHT22;7290;50.854;4.354;2023-04-01T11:21:12;13.10;99.90
14411;DHT22;7290;50.854;4.354;2023-04-01T11:23:54;12.80;99.90
14411;DHT22;7290;50.854;4.354;2023-04-01T11:26:38;12.50;99.90
14411;DHT22;7290;50.854;4.354;2023-04-01T11:29:37;12.60;99.90
14411;DHT22;7290;50.854;4.354;2023-04-01T11:32:16;12.80;99.90
14411;DHT22;7290;50.854;4.354;2023-04-01T11:35:12;12.80;99.90
14411;DHT22;7290;50.854;4.354;2023-04-01T11:37:51;12.90;99.90
14411;DHT22;7290;50.854;4.354;2023-04-01T11:40:25;12.80;99.90
14411;DHT22;7290;50.854;4.354;2023-04-01T11:42:56;12.60;99.90
14411;DHT22;7290;50.854;4.354;2023-04-01T11:45:32;12.60;99.90
14411;DHT22;7290;50.854;4.354;2023-04-01T11:48:17;12.60;99.90
14411;DHT22;7290;50.854;4.354;2023-04-01T11:50:58;12.40;99.90
14411;DHT22;7290;50.854;4.354;2023-04-01T11:53:35;12.40;99.90
14411;DHT22;7290;50.854;4.354;2023-04-01T11:56:12;12.30;99.90
14411;DHT22;7290;50.854;4.354;2023-04-01T12:01:45;12.00;99.90
14411;DHT22;7290;50.854;4.354;2023-04-01T12:07:27;11.90;99.90
14411;DHT22;7290;50.854;4.354;2023-04-01T12:10:02;12.10;99.90
14411;DHT22;7290;50.854;4.354;2023-04-01T12:12:37;12.20;99.90
14411;DHT22;7290;50.854;4.354;2023-04-01T12:15:18;12.30;99.90
14411;DHT22;7290;50.854;4.354;2023-04-01T12:17:50;12.50;99.90
14411;DHT22;7290;50.854;4.354;2023-04-01T12:20:33;12.50;99.90
14411;DHT22;7290;50.854;4.354;2023-04-01T12:23:16;12.40;99.90
14411;DHT22;7290;50.854;4.354;2023-04-01T12:26:11;12.30;99.90
14411;DHT22;7290;50.854;4.354;2023-04-01T12:28:48;12.50;99.90
14411;DHT22;7290;50.854;4.354;2023-04-01T12:31:23;12.50;99.90
14411;DHT22;7290;50.854;4.354;2023-04-01T12:34:04;12.50;99.90
14411;DHT22;7290;50.854;4.354;2023-04-01T12:36:53;12.50;99.90
14411;DHT22;7290;50.854;4.354;2023-04-01T12:39:49;12.00;99.90
14411;DHT22;7290;50.854;4.354;2023-04-01T12:42:31;11.90;99.90
14411;DHT22;7290;50.854;4.354;2023-04-01T12:45:12;12.10;99.90
14411;DHT22;7290;50.854;4.354;2023-04-01T12:51:11;12.30;99.90
14411;DHT22;7290;50.854;4.354;2023-04-01T12:54:02;11.90;99.90
14411;DHT22;7290;50.854;4.354;2023-04-01T12:56:43;11.80;99.90
14411;DHT22;7290;50.854;4.354;2023-04-01T12:59:29;11.90;99.90
14411;DHT22;7290;50.854;4.354;2023-04-01T13:02:05;12.00;99.90
14411;DHT22;7290;50.854;4.354;2023-04-01T13:05:04;11.90;99.90
14411;DHT22;7290;50.854;4.354;2023-04-01T13:07:58;11.90;99.90
14411;DHT22;7290;50.854;4.354;2023-04-01T13:10:38;11.80;99.90
14411;DHT22;7290;50.854;4.354;2023-04-01T13:13:25;11.80;99.90
14411;DHT22;7290;50.854;4.354;2023-04-01T13:15:58;11.90;99.90
14411;DHT22;7290;50.854;4.354;2023-04-01T13:18:33;12.00;99.90
14411;DHT22;7290;50.854;4.354;2023-04-01T13:21:11;12.10;99.90
14411;DHT22;7290;50.854;4.354;2023-04-01T13:23:49;12.10;99.90
14411;DHT22;7290;50.854;4.354;2023-04-01T13:26:22;11.90;99.90
14411;DHT22;7290;50.854;4.354;2023-04-01T13:28:58;11.70;99.90
14411;DHT22;7290;50.854;4.354;2023-04-01T13:31:40;11.70;99.90
14411;DHT22;7290;50.854;4.354;2023-04-01T13:34:27;11.80;99.90
14411;DHT22;7290;50.854;4.354;2023-04-01T13:37:09;11.60;99.90
14411;DHT22;7290;50.854;4.354;2023-04-01T13:39:52;11.40;99.90
14411;DHT22;7290;50.854;4.354;2023-04-01T13:42:25;11.50;99.90
14411;DHT22;7290;50.854;4.354;2023-04-01T13:44:56;11.50;99.90
14411;DHT22;7290;50.854;4.354;2023-04-01T13:51:00;11.60;99.90
14411;DHT22;7290;50.854;4.354;2023-04-01T13:53:48;11.80;99.90
14411;DHT22;7290;50.854;4.354;2023-04-01T13:56:26;11.80;99.90
14411;DHT22;7290;50.854;4.354;2023-04-01T14:01:59;12.10;99.90
14411;DHT22;7290;50.854;4.354;2023-04-01T14:04:49;12.40;99.90
14411;DHT22;7290;50.854;4.354;2023-04-01T14:07:29;12.40;99.90
14411;DHT22;7290;50.854;4.354;2023-04-01T14:10:07;12.10;99.90
14411;DHT22;7290;50.854;4.354;2023-04-01T14:12:40;12.20;99.90
14411;DHT22;7290;50.854;4.354;2023-04-01T14:15:23;12.40;99.90
14411;DHT22;7290;50.854;4.354;2023-04-01T14:18:04;12.60;99.90
14411;DHT22;7290;50.854;4.354;2023-04-01T14:20:37;12.80;99.90
14411;DHT22;7290;50.854;4.354;2023-04-01T14:26:50;12.70;99.90
14411;DHT22;7290;50.854;4.354;2023-04-01T14:29:27;12.60;99.90
14411;DHT22;7290;50.854;4.354;2023-04-01T14:32:05;12.50;99.90
14411;DHT22;7290;50.854;4.354;2023-04-01T14:34:47;12.40;99.90
14411;DHT22;7290;50.854;4.354;2023-04-01T14:37:43;12.40;99.90
14411;DHT22;7290;50.854;4.354;2023-04-01T14:40:25;12.50;99.90
14411;DHT22;7290;50.854;4.354;2023-04-01T14:43:10;12.50;99.90
14411;DHT22;7290;50.854;4.354;2023-04-01T14:45:58;12.00;99.90
14411;DHT22;7290;50.854;4.354;2023-04-01T14:48:28;11.90;99.90
14411;DHT22;7290;50.854;4.354;2023-04-01T14:51:03;11.90;99.90
14411;DHT22;7290;50.854;4.354;2023-04-01T14:53:36;12.00;99.90
14411;DHT22;7290;50.854;4.354;2023-04-01T14:56:04;12.00;99.90
14411;DHT22;7290;50.854;4.354;2023-04-01T14:58:44;12.00;99.90
14411;DHT22;7290;50.854;4.354;2023-04-01T15:01:25;12.10;99.90
14411;DHT22;7290;50.854;4.354;2023-04-01T15:04:03;12.20;99.90
14411;DHT22;7290;50.854;4.354;2023-04-01T15:06:50;12.00;99.90
14411;DHT22;7290;50.854;4.354;2023-04-01T15:09:28;11.80;99.90
14411;DHT22;7290;50.854;4.354;2023-04-01T15:12:10;11.60;99.90
14411;DHT22;7290;50.854;4.354;2023-04-01T15:14:47;11.80;99.90
14411;DHT22;7290;50.854;4.354;2023-04-01T15:17:27;11.90;99.90
14411;DHT22;7290;50.854;4.354;2023-04-01T15:20:10;12.00;99.90
14411;DHT22;7290;50.854;4.354;2023-04-01T15:22:51;12.00;99.90
14411;DHT22;7290;50.854;4.354;2023-04-01T15:25:34;12.10;99.90
14411;DHT22;7290;50.854;4.354;2023-04-01T15:28:11;12.20;99.90
14411;DHT22;7290;50.854;4.354;2023-04-01T15:30:48;12.00;99.90
14411;DHT22;7290;50.854;4.354;2023-04-01T15:36:11;11.70;99.90
14411;DHT22;7290;50.854;4.354;2023-04-01T15:38:48;11.60;99.90
14411;DHT22;7290;50.854;4.354;2023-04-01T15:41:16;11.60;99.90
14411;DHT22;7290;50.854;4.354;2023-04-01T15:43:44;11.50;99.90
14411;DHT22;7290;50.854;4.354;2023-04-01T15:46:36;11.40;99.90
14411;DHT22;7290;50.854;4.354;2023-04-01T15:49:26;11.30;99.90
14411;DHT22;7290;50.854;4.354;2023-04-01T15:52:05;11.20;99.90
14411;DHT22;7290;50.854;4.354;2023-04-01T15:55:11;11.20;99.90
14411;DHT22;7290;50.854;4.354;2023-04-01T15:57:48;11.10;99.90
14411;DHT22;7290;50.854;4.354;2023-04-01T16:00:23;11.20;99.90
14411;DHT22;7290;50.854;4.354;2023-04-01T16:03:06;11.10;99.90
14411;DHT22;7290;50.854;4.354;2023-04-01T16:05:41;11.00;99.90
14411;DHT22;7290;50.854;4.354;2023-04-01T16:08:40;11.00;99.90
14411;DHT22;7290;50.854;4.354;2023-04-01T16:11:18;11.00;99.90
14411;DHT22;7290;50.854;4.354;2023-04-01T16:13:55;11.10;99.90
14411;DHT22;7290;50.854;4.354;2023-04-01T16:16:32;11.10;99.90
14411;DHT22;7290;50.854;4.354;2023-04-01T16:22:07;11.10;99.90
14411;DHT22;7290;50.854;4.354;2023-04-01T16:24:38;11.10;99.90
14411;DHT22;7290;50.854;4.354;2023-04-01T16:27:12;11.10;99.90
14411;DHT22;7290;50.854;4.354;2023-04-01T16:29:46;11.00;99.90
14411;DHT22;7290;50.854;4.354;2023-04-01T16:32:31;11.00;99.90
14411;DHT22;7290;50.854;4.354;2023-04-01T16:35:20;11.10;99.90
14411;DHT22;7290;50.854;4.354;2023-04-01T16:37:50;11.10;99.90
14411;DHT22;7290;50.854;4.354;2023-04-01T16:40:25;11.10;99.90
14411;DHT22;7290;50.854;4.354;2023-04-01T16:43:10;11.10;99.90
14411;DHT22;7290;50.854;4.354;2023-04-01T16:45:40;11.10;99.90
14411;DHT22;7290;50.854;4.354;2023-04-01T16:48:12;11.00;99.90
14411;DHT22;7290;50.854;4.354;2023-04-01T16:50:49;11.00;99.90
14411;DHT22;7290;50.854;4.354;2023-04-01T16:53:19;11.00;99.90
14411;DHT22;7290;50.854;4.354;2023-04-01T16:55:54;11.10;99.90
14411;DHT22;7290;50.854;4.354;2023-04-01T16:58:28;11.10;99.90
14411;DHT22;7290;50.854;4.354;2023-04-01T17:01:00;11.10;99.90
14411;DHT22;7290;50.854;4.354;2023-04-01T17:03:30;11.00;99.90
14411;DHT22;7290;50.854;4.354;2023-04-01T17:06:11;11.00;99.90
14411;DHT22;7290;50.854;4.354;2023-04-01T17:08:58;11.00;99.90
14411;DHT22;7290;50.854;4.354;2023-04-01T17:11:29;11.10;99.90
14411;DHT22;7290;50.854;4.354;2023-04-01T17:14:04;11.20;99.90
14411;DHT22;7290;50.854;4.354;2023-04-01T17:16:54;11.20;99.90
14411;DHT22;7290;50.854;4.354;2023-04-01T17:19:36;11.10;99.90
14411;DHT22;7290;50.854;4.354;2023-04-01T17:22:15;11.10;99.90
14411;DHT22;7290;50.854;4.354;2023-04-01T17:24:53;11.10;99.90
14411;DHT22;7290;50.854;4.354;2023-04-01T17:27:30;11.10;99.90
14411;DHT22;7290;50.854;4.354;2023-04-01T17:30:12;11.10;99.90
14411;DHT22;7290;50.854;4.354;2023-04-01T17:33:00;11.10;99.90
14411;DHT22;7290;50.854;4.354;2023-04-01T17:35:32;11.10;99.90
14411;DHT22;7290;50.854;4.354;2023-04-01T17:38:07;11.00;99.90
14411;DHT22;7290;50.854;4.354;2023-04-01T17:40:44;10.90;99.90
14411;DHT22;7290;50.854;4.354;2023-04-01T17:43:21;11.00;99.90
14411;DHT22;7290;50.854;4.354;2023-04-01T17:45:54;11.10;99.90